Birmingham, AL (35213)

1:59 AM CDT on August 28, 2014 (GMT -0500)
Crestwood South | Change Station
CLOSE
Current Station
Personal Weather Station
Location: Birmingham, AL
Elevation: 1079 ft
Nearby Weather Stations

Elev 1079 ft 33.52 °N, 86.74 °W | Updated 3 minutes ago

Partly Cloudy
Partly Cloudy
75.4 °F
Feels Like 78 °F
N
0.0
Wind Variable Wind from ENE

Today
High -- | Low -- °F
--% Chance of Precip.
Yesterday
High -- | Low -- °F
Precip. -- in
6:18 AM 7:17 PM
Waxing Crescent, 7% visible
Pressure 30.02 in
Visibility 10.0 miles
Clouds Few 20000 ft
Heat Index 78 °F
Dew Point 56 °F
Humidity 52%
Rainfall 0.00 in
Snow Depth Not available.
UV 0 out of 12
Pollen 9.30 out of 12
Ozone Good
PM2.5 Moderate
Flu Activity Not available.
METAR KBHM 280653Z 00000KT 10SM FEW200 21/17 A3005 RMK AO2 SLP166 T02060167

More Conditions Fewer Conditions

Pressure 30.02 in
Visibility 10.0 miles
Clouds Few 20000 ft
Heat Index 78 °F
Dew Point 56 °F
Humidity 52%
Rainfall 0.00 in
Snow Depth Not available.
UV 0 out of 12
Pollen 9.30 out of 12
Ozone Good
PM2.5 Moderate
Flu Activity Not available.
METAR KBHM 280653Z 00000KT 10SM FEW200 21/17 A3005 RMK AO2 SLP166 T02060167

More Conditions Fewer Conditions

10-Day Weather Forecast

Almanac

Astronomy

Aug. 28, 2014 Rise Set
Actual Time 6:18 AM CDT 7:17 PM CDT
Civil Twilight 5:52 AM CDT 7:42 PM CDT
Nautical Twilight 5:22 AM CDT 8:13 PM CDT
Astronomical Twilight 4:51 AM CDT 8:44 PM CDT
Moon 8:59 AM CDT 8:52 PM CDT
Length of Visible Light 13h 50m
Length of Day
12h 59m
Tomorrow will be 1m 57s shorter.
Waxing Crescent, 7% of the Moon is Illuminated
Today
Waxing Crescent
Sep 2
First Quarter
Sep 8
Full
Sep 15
Last Quarter
Sep 24
New

Today's Extremes

State Highs State Lows

Community

WunderPhotos

Upload Photos

1,747,912 photos uploaded!

Nearby

Air Quality

  Air Quality AQ Index Pollutant
Yesterday Moderate
OZONE
Yesterday Good
PM10
Current Moderate
PM2.5
Current Good
OZONE
Thursday Unhealthy for Sensitive Groups
OZONE
Thursday Moderate
PM2.5

Snow Depth

Station Depth Elevation
No new snow has been reported.

Earthquake Activity

City Distance Mag. Time & Date
No recent earthquake activity has been reported nearby.
Minimum magnitude displayed is 2.5.

Coastal Water Temperatures

Place Temperature
No Stations Reporting

Nearby Weather Stations